Wednesday, October 1, 2014, 10:19 PM EDT

KSBY, Salisbury-wicomico Cty Reg

Location: Salisbury, MD, United States Lat: 38.333
Local Time: 10:19 PM EDT ( 2:19 GMT) Lon: -75.5
Time Zone: US/Eastern Elev: 52 ft

Show me the last for .
Show Decoded

2014-10-01 21:54 METAR KSBY 020154Z 00000KT 10SM CLR 17/14 A3005 RMK AO2 SLP177 T01670139 =
2014-10-01 20:54 METAR KSBY 020054Z 00000KT 10SM CLR 18/14 A3004 RMK AO2 SLP173 T01780144 =
2014-10-01 19:54 METAR KSBY 012354Z 00000KT 10SM CLR 18/14 A3002 RMK AO2 SLP169 T01780144 10250
                 20178 53009 =
2014-10-01 18:54 METAR KSBY 012254Z 35003KT 10SM CLR 20/14 A3001 RMK AO2 SLP165 T02000144 =
2014-10-01 17:54 METAR KSBY 012154Z 04006KT 10SM CLR 22/14 A3000 RMK AO2 SLP161 T02220144 =
2014-10-01 16:54 METAR KSBY 012054Z 01007KT 10SM FEW040 24/14 A3000 RMK AO2 SLP159 T02390144
                 55000 =
2014-10-01 15:54 METAR KSBY 011954Z 01008KT 10SM FEW027 24/15 A2999 RMK AO2 SLP156 T02440150 =
2014-10-01 14:54 METAR KSBY 011854Z 02008KT 10SM FEW026 OVC043 23/16 A2999 RMK AO2 SLP158
                 T02280161 =
2014-10-01 13:54 METAR KSBY 011754Z 01008KT 10SM FEW022 OVC039 23/17 A3000 RMK AO2 SLP159
                 T02330167 10244 20194 58006 =
2014-10-01 13:15 METAR KSBY 011715Z 03009KT 10SM SCT023 BKN030 OVC035 23/16 A3000 RMK AO2 =
2014-10-01 13:05 METAR KSBY 011705Z 02008KT 10SM SCT023 BKN027 OVC035 23/17 A3000 RMK AO2 =
2014-10-01 12:54 METAR KSBY 011654Z 36006KT 10SM SCT021 OVC035 23/16 A3000 RMK AO2 SLP161
                 T02330161 =
2014-10-01 11:54 METAR KSBY 011554Z 06008KT 10SM SCT017 BKN027 BKN110 23/17 A3001 RMK AO2 SLP164
                 T02330167 =
2014-10-01 11:38 METAR KSBY 011538Z 02006KT 10SM FEW015 SCT027 OVC110 23/17 A3001 RMK AO2 =
2014-10-01 10:54 METAR KSBY 011454Z 36008KT 10SM FEW014 BKN025 OVC110 22/17 A3001 RMK AO2 SLP165
                 T02170167 51014 =
2014-10-01 10:08 METAR KSBY 011408Z 01008KT 10SM SCT010 OVC019 21/17 A3001 RMK AO2 CIG 012V023 =
2014-10-01 09:54 METAR KSBY 011354Z 01007KT 10SM OVC011 21/17 A3001 RMK AO2 SLP162 T02060172 =
2014-10-01 09:34 METAR KSBY 011334Z 36006KT 10SM OVC011 20/17 A3000 RMK AO2 CIG 008V013 =
2014-10-01 08:54 METAR KSBY 011254Z AUTO 36006KT 10SM BKN007 OVC010 19/17 A2999 RMK AO2 CIG
                 005V009 SLP158 T01940172 TSNO =
2014-10-01 07:54 METAR KSBY 011154Z 35004KT 7SM OVC007 19/17 A2997 RMK AO2 CIG 005V009 SLP151
                 T01890167 10189 20167 53012 =
2014-10-01 07:13 METAR KSBY 011113Z 36004KT 7SM OVC009 18/17 A2996 RMK AO2 CIG 008V013 =
2014-10-01 07:02 METAR KSBY 011102Z 33005KT 8SM SCT005 OVC011 18/16 A2996 RMK AO2 =
2014-10-01 06:54 METAR KSBY 011054Z 33004KT 8SM FEW005 BKN009 18/16 A2996 =
2014-10-01 06:03 METAR KSBY 011003Z 35004KT 7SM SCT004 OVC010 18/16 A2994 RMK AO2 =
2014-10-01 05:54 METAR KSBY 010954Z 36004KT 6SM BR BKN004 BKN010 17/16 A2994 RMK AO2 SLP141
                 T01720156 =
2014-10-01 05:44 METAR KSBY 010944Z AUTO 01006KT 6SM BR BKN004 17/16 A2994 RMK AO2 =
2014-10-01 05:35 METAR KSBY 010935Z AUTO 36005KT 7SM SCT004 17/16 A2994 RMK AO2 =
2014-10-01 04:54 METAR KSBY 010854Z AUTO 35005KT 8SM CLR 17/16 A2994 RMK AO2 SLP140 T01720156
                 55001 =
2014-10-01 03:54 METAR KSBY 010754Z AUTO 01005KT 7SM CLR 17/15 A2993 RMK AO2 SLP136 T01720150 =
2014-10-01 02:54 METAR KSBY 010654Z AUTO 00000KT 6SM BR CLR 17/15 A2993 RMK AO2 SLP138 T01720150
                 =
2014-10-01 01:54 METAR KSBY 010554Z AUTO 34003KT 6SM BR FEW048 18/16 A2994 RMK AO2 SLP141
                 T01780156 10200 20172 51006 =
2014-10-01 00:54 METAR KSBY 010454Z AUTO 00000KT 6SM BR BKN046 BKN060 18/16 A2993 RMK AO2 SLP139
                 T01830161 402670172 =
2014-09-30 23:54 METAR KSBY 010354Z AUTO 32004KT 7SM OVC049 18/16 A2994 RMK AO2 SLP141 T01830161
                 =
2014-09-30 22:54 METAR KSBY 010254Z AUTO 00000KT 6SM BR CLR 18/16 A2992 RMK AO2 SLP135 T01780156
                 51008 =

Support USWX by starting your Amazon purchase here.